< < Back
Terminal Aerodrome Forecast


Current Version              Previous Versions:   1  2  3  4  5  6  7  8  9  

Terminal Aerodrome Forecast

624
FTUS44 KOHX 291128
TAFBNA
TAF
KBNA 291128Z 2912/3012 20003KT P6SM OVC015
     FM291600 23006KT P6SM BKN040
     FM291900 22005KT P6SM VCTS BKN050CB
     FM292300 21003KT P6SM BKN100
     FM300900 21003KT P6SM SCT015 OVC021=

Latest METAR

417
SAUS70 KWBC 292100 RRK
MTRBNA
METAR KBNA 292053Z 22010G15KT 10SM FEW030 BKN045 BKN075 31/22 A2993 RMK
AO2 LTG DSNT NE SLP129 TCU DSNT N-E T03060222 58013


USA.gov is the U.S. government's official web portal to all federal, state and local government web resources and services.